Time;durP1;ratioP1;P1;durP2;ratioP2;P2;SDS_P1;SDS_P2;PMS_P1;PMS_P2;Temp;Humidity;BMP_temperature;BMP_pressure;BME280_temperature;BME280_humidity;BME280_pressure;Samples;Min_cycle;Max_cycle;Signal;HPM_P1;HPM_P2
2021/05/12 00:02:25;;;;;;;;;;;14.70;46.40;;;;;;5056139;28;75659;-68
2021/05/12 00:04:50;;;;;;;;;;;14.70;46.60;;;;;;5055789;28;75124;-70
2021/05/12 00:07:16;;;;;;;;;;;14.70;46.50;;;;;;5055828;28;75039;-70
2021/05/12 00:09:42;;;;;;;;;;;14.70;46.40;;;;;;5036958;28;76515;-69
2021/05/12 00:12:08;;;;;;;;;;;14.70;46.40;;;;;;5037339;28;75402;-70
2021/05/12 00:14:36;;;;;;;;;;;14.80;46.40;;;;;;5037538;28;76739;-70
2021/05/12 00:17:02;;;;;;;;;;;14.70;46.50;;;;;;5055748;28;75853;-70
2021/05/12 00:19:28;;;;;;;;;;;14.70;46.60;;;;;;5055891;28;75111;-71
2021/05/12 00:22:29;;;;;;;;;;;14.70;47.40;;;;;;5055499;28;75392;-69
2021/05/12 00:24:40;;;;;;;;;;;14.70;47.10;;;;;;5054744;28;75192;-68
2021/05/12 00:27:06;;;;;;;;;;;14.60;46.70;;;;;;5055072;28;74585;-70
2021/05/12 00:29:31;;;;;;;;;;;14.70;46.40;;;;;;5055521;28;75635;-71
2021/05/12 00:31:57;;;;;;;;;;;14.60;46.90;;;;;;5055931;28;75197;-71
2021/05/12 00:34:23;;;;;;;;;;;14.60;47.10;;;;;;5055379;28;75581;-71
2021/05/12 00:36:48;;;;;;;;;;;14.50;47.90;;;;;;5055782;28;75707;-71
2021/05/12 00:39:15;;;;;;;;;;;14.40;47.80;;;;;;5055238;28;75142;-71
2021/05/12 00:41:41;;;;;;;;;;;14.50;48.00;;;;;;5036752;28;77530;-69
2021/05/12 00:44:14;;;;;;;;;;;14.40;47.80;;;;;;5055220;28;75024;-67
2021/05/12 00:46:46;;;;;;;;;;;14.40;47.50;;;;;;5036261;28;77513;-66
2021/05/12 00:49:12;;;;;;;;;;;14.40;47.90;;;;;;5055369;28;75127;-67
2021/05/12 00:51:38;;;;;;;;;;;14.30;48.40;;;;;;5055148;28;74907;-68
2021/05/12 00:54:04;;;;;;;;;;;14.30;48.20;;;;;;5036622;28;74860;-66
2021/05/12 00:56:29;;;;;;;;;;;14.30;49.40;;;;;;5055028;28;75236;-67
2021/05/12 00:58:55;;;;;;;;;;;14.20;48.90;;;;;;5036655;28;77708;-67
2021/05/12 01:01:21;;;;;;;;;;;14.20;48.70;;;;;;5054950;27;75476;-66
2021/05/12 01:03:47;;;;;;;;;;;14.30;48.40;;;;;;5055320;28;75126;-66
2021/05/12 01:06:20;;;;;;;;;;;14.30;48.50;;;;;;5036002;28;76175;-65
2021/05/12 01:08:46;;;;;;;;;;;14.20;48.40;;;;;;5035892;28;77204;-69
2021/05/12 01:11:11;;;;;;;;;;;14.20;49.30;;;;;;5054806;28;75278;-68
2021/05/12 01:13:39;;;;;;;;;;;14.20;49.20;;;;;;5035617;28;96034;-68
2021/05/12 01:16:04;;;;;;;;;;;14.20;49.20;;;;;;5036334;28;78013;-69
2021/05/12 01:18:30;;;;;;;;;;;14.20;49.60;;;;;;5055292;28;74580;-69
2021/05/12 01:20:57;;;;;;;;;;;14.20;50.20;;;;;;5055043;28;75452;-69
2021/05/12 01:23:24;;;;;;;;;;;14.10;50.10;;;;;;5036162;28;74634;-67
2021/05/12 01:25:50;;;;;;;;;;;14.10;49.80;;;;;;5054619;28;75143;-69
2021/05/12 01:28:16;;;;;;;;;;;14.10;49.80;;;;;;5054723;28;75290;-68
2021/05/12 01:30:49;;;;;;;;;;;14.10;49.70;;;;;;5054621;28;74571;-68
2021/05/12 01:33:15;;;;;;;;;;;14.10;49.60;;;;;;5054560;28;74482;-68
2021/05/12 01:35:40;;;;;;;;;;;14.10;50.60;;;;;;5054502;28;75755;-68
2021/05/12 01:38:06;;;;;;;;;;;14.10;49.80;;;;;;5035107;28;77049;-68
2021/05/12 01:40:31;;;;;;;;;;;14.20;49.60;;;;;;5035621;28;74529;-67
2021/05/12 01:42:57;;;;;;;;;;;14.10;50.40;;;;;;5034995;28;77197;-69
2021/05/12 01:45:22;;;;;;;;;;;14.10;50.40;;;;;;5054492;28;74508;-69
2021/05/12 01:47:48;;;;;;;;;;;14.10;50.10;;;;;;5054406;28;75163;-66
2021/05/12 01:50:14;;;;;;;;;;;14.10;50.30;;;;;;5035429;28;75730;-65
2021/05/12 01:52:40;;;;;;;;;;;14.00;50.20;;;;;;5035425;28;76069;-67
2021/05/12 01:55:07;;;;;;;;;;;14.00;50.20;;;;;;5054058;28;75159;-71
2021/05/12 01:57:33;;;;;;;;;;;14.00;51.00;;;;;;5035064;28;76435;-68
2021/05/12 01:59:58;;;;;;;;;;;13.90;51.80;;;;;;5054247;28;75317;-71
2021/05/12 02:02:24;;;;;;;;;;;13.90;51.80;;;;;;5054518;28;74692;-69
2021/05/12 02:04:49;;;;;;;;;;;13.80;51.70;;;;;;5053926;28;74861;-72
2021/05/12 02:07:15;;;;;;;;;;;13.80;51.90;;;;;;5053926;28;74867;-68
2021/05/12 02:09:43;;;;;;;;;;;13.80;51.60;;;;;;5035518;28;77947;-69
2021/05/12 02:12:09;;;;;;;;;;;13.80;51.90;;;;;;5053081;27;75469;-69
2021/05/12 02:14:35;;;;;;;;;;;13.80;51.80;;;;;;5054186;28;74447;-69
2021/05/12 02:17:00;;;;;;;;;;;13.90;51.40;;;;;;5035025;28;75466;-68
2021/05/12 02:19:26;;;;;;;;;;;13.90;51.80;;;;;;5035262;28;78037;-68
2021/05/12 02:21:51;;;;;;;;;;;13.80;52.00;;;;;;5035399;28;78784;-72
2021/05/12 02:24:17;;;;;;;;;;;13.70;52.70;;;;;;5053902;28;75210;-66
2021/05/12 02:26:42;;;;;;;;;;;13.70;52.20;;;;;;5035101;28;76132;-66
2021/05/12 02:29:08;;;;;;;;;;;13.70;52.40;;;;;;5053735;28;74566;-66
2021/05/12 02:31:34;;;;;;;;;;;13.70;52.20;;;;;;5034630;28;77180;-66
2021/05/12 02:33:59;;;;;;;;;;;13.80;52.20;;;;;;5034951;28;77871;-67
2021/05/12 02:36:25;;;;;;;;;;;13.80;52.80;;;;;;5054000;28;74371;-65
2021/05/12 02:38:51;;;;;;;;;;;13.70;52.20;;;;;;5053860;28;75184;-65
2021/05/12 02:41:17;;;;;;;;;;;13.80;52.10;;;;;;5035100;28;78226;-69
2021/05/12 02:43:43;;;;;;;;;;;13.80;52.10;;;;;;5034602;28;77364;-65
2021/05/12 02:46:08;;;;;;;;;;;13.90;52.10;;;;;;5057651;27;75199;-69
2021/05/12 02:48:34;;;;;;;;;;;13.80;52.80;;;;;;5073860;27;75113;-67
2021/05/12 02:51:00;;;;;;;;;;;13.80;52.70;;;;;;5053757;27;75313;-65
2021/05/12 02:53:25;;;;;;;;;;;13.80;52.30;;;;;;5043398;28;76919;-67
2021/05/12 02:55:51;;;;;;;;;;;13.80;52.40;;;;;;5034737;28;75467;-66
2021/05/12 02:58:16;;;;;;;;;;;13.90;52.60;;;;;;5053323;28;75807;-66
2021/05/12 03:00:42;;;;;;;;;;;13.90;52.50;;;;;;5034540;28;78245;-66
2021/05/12 03:03:08;;;;;;;;;;;13.90;52.60;;;;;;5034356;28;75352;-66
2021/05/12 03:05:35;;;;;;;;;;;13.80;52.50;;;;;;5053081;28;75478;-66
2021/05/12 03:08:00;;;;;;;;;;;13.90;52.60;;;;;;5034271;28;76485;-66
2021/05/12 03:10:26;;;;;;;;;;;13.80;52.60;;;;;;5052882;28;75150;-68
2021/05/12 03:12:52;;;;;;;;;;;13.80;52.50;;;;;;5053629;28;74504;-67
2021/05/12 03:15:19;;;;;;;;;;;13.90;52.60;;;;;;5033970;28;75403;-68
2021/05/12 03:17:45;;;;;;;;;;;13.80;53.40;;;;;;5052996;28;75602;-67
2021/05/12 03:20:11;;;;;;;;;;;13.80;53.50;;;;;;5053152;28;75662;-66
2021/05/12 03:22:37;;;;;;;;;;;13.70;53.20;;;;;;5034342;28;76286;-67
2021/05/12 03:25:03;;;;;;;;;;;13.70;53.50;;;;;;5033300;28;77814;-70
2021/05/12 03:27:28;;;;;;;;;;;13.70;53.10;;;;;;5052869;28;77163;-67
2021/05/12 03:29:54;;;;;;;;;;;13.80;53.50;;;;;;5052953;28;75821;-69
2021/05/12 03:32:19;;;;;;;;;;;13.80;53.40;;;;;;5034036;28;75823;-71
2021/05/12 03:34:45;;;;;;;;;;;13.70;54.30;;;;;;5053016;28;75065;-71
2021/05/12 03:37:11;;;;;;;;;;;13.70;55.10;;;;;;5052430;28;75193;-70
2021/05/12 03:39:36;;;;;;;;;;;13.70;54.60;;;;;;5052484;28;75685;-69
2021/05/12 03:42:02;;;;;;;;;;;13.60;56.00;;;;;;5033141;28;77569;-69
2021/05/12 03:44:28;;;;;;;;;;;13.60;55.80;;;;;;5052437;28;75250;-69
2021/05/12 03:46:53;;;;;;;;;;;13.60;56.30;;;;;;5052490;28;75836;-70
2021/05/12 03:49:19;;;;;;;;;;;13.50;56.10;;;;;;5052139;28;74983;-70
2021/05/12 03:51:45;;;;;;;;;;;13.50;55.70;;;;;;5052392;28;75136;-71
2021/05/12 03:54:10;;;;;;;;;;;13.60;55.70;;;;;;5033587;28;78049;-71
2021/05/12 03:56:36;;;;;;;;;;;13.60;55.70;;;;;;5052250;28;74433;-72
2021/05/12 03:59:02;;;;;;;;;;;13.60;56.50;;;;;;5052902;28;75705;-72
2021/05/12 04:01:28;;;;;;;;;;;13.50;55.60;;;;;;5034070;28;75259;-71
2021/05/12 04:03:53;;;;;;;;;;;13.50;56.00;;;;;;5033993;28;76032;-73
2021/05/12 04:06:19;;;;;;;;;;;13.50;56.70;;;;;;5052246;28;75833;-73
2021/05/12 04:08:44;;;;;;;;;;;13.50;56.20;;;;;;5066724;27;77360;-71
2021/05/12 04:11:10;;;;;;;;;;;13.50;55.90;;;;;;5051941;28;75540;-72
2021/05/12 04:13:36;;;;;;;;;;;13.50;56.30;;;;;;5033521;28;75380;-71
2021/05/12 04:16:02;;;;;;;;;;;13.50;56.00;;;;;;5052032;28;75434;-72
2021/05/12 04:18:28;;;;;;;;;;;13.60;56.00;;;;;;5051851;28;74535;-67
2021/05/12 04:20:53;;;;;;;;;;;13.60;55.60;;;;;;5033302;28;78111;-69
2021/05/12 04:23:19;;;;;;;;;;;13.60;55.80;;;;;;5052117;28;74598;-68
2021/05/12 04:25:44;;;;;;;;;;;13.60;56.40;;;;;;5051876;28;74441;-66
2021/05/12 04:28:10;;;;;;;;;;;13.60;56.10;;;;;;5052054;28;75627;-73
2021/05/12 04:30:36;;;;;;;;;;;13.60;55.70;;;;;;5051896;28;74374;-71
2021/05/12 04:33:01;;;;;;;;;;;13.60;55.80;;;;;;5058238;27;75149;-66
2021/05/12 04:35:27;;;;;;;;;;;13.60;56.30;;;;;;5072642;27;75147;-63
2021/05/12 04:37:53;;;;;;;;;;;13.60;55.90;;;;;;5076057;27;74697;-64
2021/05/12 04:40:19;;;;;;;;;;;13.60;57.10;;;;;;5038427;28;75763;-65
2021/05/12 04:42:46;;;;;;;;;;;13.60;57.90;;;;;;5055809;28;74340;-69
2021/05/12 04:45:12;;;;;;;;;;;13.50;59.20;;;;;;5035784;28;77531;-69
2021/05/12 04:47:38;;;;;;;;;;;13.40;59.10;;;;;;5055174;28;75421;-69
2021/05/12 04:50:05;;;;;;;;;;;13.40;59.40;;;;;;5055083;28;75387;-69
2021/05/12 04:52:30;;;;;;;;;;;13.30;59.60;;;;;;5035811;28;77619;-72
2021/05/12 04:54:56;;;;;;;;;;;13.20;60.50;;;;;;5055237;28;74425;-73
2021/05/12 04:57:21;;;;;;;;;;;13.10;61.20;;;;;;5035510;28;77422;-70
2021/05/12 04:59:47;;;;;;;;;;;12.90;60.70;;;;;;5036440;28;76485;-68
2021/05/12 05:02:14;;;;;;;;;;;12.80;62.60;;;;;;5036400;28;74602;-66
2021/05/12 05:04:40;;;;;;;;;;;12.70;63.20;;;;;;5035968;28;77957;-72
2021/05/12 05:07:06;;;;;;;;;;;12.80;62.20;;;;;;5054645;28;75777;-71
2021/05/12 05:09:32;;;;;;;;;;;12.80;62.00;;;;;;5054972;28;74399;-74
2021/05/12 05:11:58;;;;;;;;;;;12.80;63.20;;;;;;5035771;28;74641;-69
2021/05/12 05:14:23;;;;;;;;;;;12.80;62.20;;;;;;5054730;28;75210;-71
2021/05/12 05:16:49;;;;;;;;;;;12.80;62.30;;;;;;5035806;28;75362;-73
2021/05/12 05:19:15;;;;;;;;;;;12.80;63.00;;;;;;5054752;28;75620;-71
2021/05/12 05:21:41;;;;;;;;;;;12.80;62.50;;;;;;5035679;28;76813;-70
2021/05/12 05:24:08;;;;;;;;;;;12.80;62.50;;;;;;5035740;28;75966;-68
2021/05/12 05:26:33;;;;;;;;;;;12.90;62.40;;;;;;5034998;28;77292;-68
2021/05/12 05:28:59;;;;;;;;;;;12.80;62.70;;;;;;5054214;28;75065;-67
2021/05/12 05:31:24;;;;;;;;;;;12.90;62.70;;;;;;5035455;28;78168;-66
2021/05/12 05:33:50;;;;;;;;;;;12.90;62.80;;;;;;5035713;28;75306;-70
2021/05/12 05:36:16;;;;;;;;;;;12.90;62.60;;;;;;5043824;27;75120;-68
2021/05/12 05:38:42;;;;;;;;;;;12.90;62.40;;;;;;5070999;27;76112;-66
2021/05/12 05:41:08;;;;;;;;;;;12.90;62.40;;;;;;5072336;27;74980;-65
2021/05/12 05:43:33;;;;;;;;;;;12.90;63.20;;;;;;5055898;27;75533;-67
2021/05/12 05:45:59;;;;;;;;;;;12.90;64.50;;;;;;5053090;27;74744;-69
2021/05/12 05:48:25;;;;;;;;;;;12.80;64.10;;;;;;5051517;27;76762;-65
2021/05/12 05:50:50;;;;;;;;;;;12.90;63.10;;;;;;5056016;27;77301;-65
2021/05/12 05:53:18;;;;;;;;;;;12.80;63.30;;;;;;5055167;27;76497;-66
2021/05/12 05:55:44;;;;;;;;;;;12.90;63.40;;;;;;5055124;27;75373;-64
2021/05/12 05:58:10;;;;;;;;;;;12.90;63.00;;;;;;5074340;27;75723;-68
2021/05/12 06:00:35;;;;;;;;;;;12.90;62.80;;;;;;5055530;27;74744;-69
2021/05/12 06:03:01;;;;;;;;;;;12.90;62.90;;;;;;5054760;27;77303;-70
2021/05/12 06:05:27;;;;;;;;;;;12.90;63.20;;;;;;5072125;27;74701;-68
2021/05/12 06:07:52;;;;;;;;;;;12.90;62.70;;;;;;5072900;27;75334;-68
2021/05/12 06:10:19;;;;;;;;;;;12.90;63.50;;;;;;5055525;27;76971;-67
2021/05/12 06:12:44;;;;;;;;;;;12.90;63.50;;;;;;5055523;27;78248;-67
2021/05/12 06:15:14;;;;;;;;;;;12.90;63.50;;;;;;5073994;27;75132;-65
2021/05/12 06:17:40;;;;;;;;;;;12.90;62.70;;;;;;5055048;27;75803;-67
2021/05/12 06:20:06;;;;;;;;;;;12.90;63.00;;;;;;5073972;27;75188;-68
2021/05/12 06:22:31;;;;;;;;;;;12.90;62.80;;;;;;5053071;27;75399;-68
2021/05/12 06:24:57;;;;;;;;;;;12.90;62.50;;;;;;5033919;28;77001;-68
2021/05/12 06:27:23;;;;;;;;;;;12.90;62.80;;;;;;5053221;27;76941;-69
2021/05/12 06:29:48;;;;;;;;;;;13.00;62.10;;;;;;5045017;28;75659;-69
2021/05/12 06:32:17;;;;;;;;;;;12.90;62.20;;;;;;5053285;28;75523;-68
2021/05/12 06:34:43;;;;;;;;;;;12.90;62.10;;;;;;5053692;28;75825;-69
2021/05/12 06:37:08;;;;;;;;;;;12.90;62.30;;;;;;5064514;27;75596;-68
2021/05/12 06:39:34;;;;;;;;;;;13.00;62.10;;;;;;5035106;28;77657;-66
2021/05/12 06:42:00;;;;;;;;;;;13.00;62.30;;;;;;5034161;28;76415;-66
2021/05/12 06:44:25;;;;;;;;;;;13.00;62.50;;;;;;5034880;28;78253;-69
2021/05/12 06:46:52;;;;;;;;;;;12.90;62.70;;;;;;5065061;27;75393;-67
2021/05/12 06:49:18;;;;;;;;;;;12.90;62.50;;;;;;5054499;27;77330;-67
2021/05/12 06:51:43;;;;;;;;;;;12.90;63.00;;;;;;5070440;27;75452;-67
2021/05/12 06:54:09;;;;;;;;;;;12.90;62.90;;;;;;5053797;27;75626;-68
2021/05/12 06:56:34;;;;;;;;;;;12.90;62.60;;;;;;5053043;27;74644;-68
2021/05/12 06:59:00;;;;;;;;;;;13.00;62.10;;;;;;5072266;27;75558;-67
2021/05/12 07:01:26;;;;;;;;;;;13.00;62.20;;;;;;5053110;27;75823;-67
2021/05/12 07:03:51;;;;;;;;;;;12.90;62.90;;;;;;5054118;27;76536;-68
2021/05/12 07:06:17;;;;;;;;;;;12.90;62.90;;;;;;5053918;27;75651;-67
2021/05/12 07:08:48;;;;;;;;;;;12.90;63.00;;;;;;5070514;27;75031;-68
2021/05/12 07:11:13;;;;;;;;;;;12.90;62.60;;;;;;5071217;27;76649;-68
2021/05/12 07:13:39;;;;;;;;;;;13.00;62.70;;;;;;5054121;27;75607;-67
2021/05/12 07:16:05;;;;;;;;;;;13.10;62.60;;;;;;5053689;27;77070;-68
2021/05/12 07:18:32;;;;;;;;;;;13.30;61.90;;;;;;5054071;27;76423;-68
2021/05/12 07:20:58;;;;;;;;;;;13.40;61.60;;;;;;5052171;27;77878;-68
2021/05/12 07:23:24;;;;;;;;;;;13.40;61.20;;;;;;5071030;27;75622;-68
2021/05/12 07:25:50;;;;;;;;;;;13.40;61.10;;;;;;5053899;27;75433;-68
2021/05/12 07:28:16;;;;;;;;;;;13.50;60.90;;;;;;5071669;27;75274;-68
2021/05/12 07:30:43;;;;;;;;;;;13.40;60.80;;;;;;5072749;27;74534;-67
2021/05/12 07:33:08;;;;;;;;;;;13.40;60.80;;;;;;5053782;27;78321;-66
2021/05/12 07:35:34;;;;;;;;;;;13.40;61.00;;;;;;5054025;27;74686;-68
2021/05/12 07:38:00;;;;;;;;;;;13.40;60.70;;;;;;5072263;27;75605;-68
2021/05/12 07:40:30;;;;;;;;;;;13.40;60.70;;;;;;5053351;27;76490;-67
2021/05/12 07:42:57;;;;;;;;;;;13.40;60.70;;;;;;5054175;27;75637;-67
2021/05/12 07:45:23;;;;;;;;;;;13.60;60.40;;;;;;5072440;27;75253;-67
2021/05/12 07:47:48;;;;;;;;;;;13.70;60.10;;;;;;5052709;27;77162;-69
2021/05/12 07:50:14;;;;;;;;;;;13.70;59.80;;;;;;5072056;27;74569;-65
2021/05/12 07:52:39;;;;;;;;;;;13.70;59.80;;;;;;5053954;27;77317;-67
2021/05/12 07:55:05;;;;;;;;;;;13.70;59.70;;;;;;5047974;27;75695;-67
2021/05/12 07:57:31;;;;;;;;;;;13.80;59.50;;;;;;5066964;27;75206;-67
2021/05/12 07:59:57;;;;;;;;;;;13.90;59.30;;;;;;5087444;27;74882;-67
2021/05/12 08:02:22;;;;;;;;;;;14.00;59.20;;;;;;5034868;28;76813;-66
2021/05/12 08:04:48;;;;;;;;;;;14.10;59.10;;;;;;5033388;28;76162;-65
2021/05/12 08:07:14;;;;;;;;;;;14.20;58.70;;;;;;5040423;27;77660;-65
2021/05/12 08:09:40;;;;;;;;;;;14.20;58.40;;;;;;5071480;27;75198;-66
2021/05/12 08:12:06;;;;;;;;;;;14.00;58.40;;;;;;5073378;27;75635;-67
2021/05/12 08:14:31;;;;;;;;;;;14.00;58.80;;;;;;5053122;27;78118;-67
2021/05/12 08:16:57;;;;;;;;;;;14.00;59.10;;;;;;5053407;27;76475;-67
2021/05/12 08:19:22;;;;;;;;;;;14.00;58.90;;;;;;5073884;27;75366;-67
2021/05/12 08:21:48;;;;;;;;;;;14.20;59.00;;;;;;5055283;27;74709;-65
2021/05/12 08:24:14;;;;;;;;;;;14.30;58.70;;;;;;5072887;27;76251;-67
2021/05/12 08:26:40;;;;;;;;;;;14.40;58.30;;;;;;5053186;27;79055;-66
2021/05/12 08:29:07;;;;;;;;;;;14.50;58.20;;;;;;5054390;27;77893;-66
2021/05/12 08:31:33;;;;;;;;;;;14.60;57.70;;;;;;5055161;27;77927;-65
2021/05/12 08:34:03;;;;;;;;;;;14.70;57.50;;;;;;5073378;27;76086;-67
2021/05/12 08:36:29;;;;;;;;;;;14.80;57.20;;;;;;5052820;27;77693;-67
2021/05/12 08:38:55;;;;;;;;;;;14.80;56.80;;;;;;5053435;27;77443;-67
2021/05/12 08:41:20;;;;;;;;;;;14.70;57.20;;;;;;5073674;27;74770;-67
2021/05/12 08:43:46;;;;;;;;;;;14.80;57.10;;;;;;5073589;27;75377;-65
2021/05/12 08:46:13;;;;;;;;;;;14.70;57.10;;;;;;5073545;27;74765;-67
2021/05/12 08:48:40;;;;;;;;;;;14.90;57.10;;;;;;5073380;27;75280;-67
2021/05/12 08:51:09;;;;;;;;;;;14.90;57.00;;;;;;5055072;27;74730;-68
2021/05/12 08:53:35;;;;;;;;;;;15.00;56.70;;;;;;5054339;27;77128;-67
2021/05/12 08:56:01;;;;;;;;;;;15.20;56.10;;;;;;5054643;27;76343;-67
2021/05/12 08:58:28;;;;;;;;;;;15.40;56.10;;;;;;5073108;27;75058;-68
2021/05/12 09:00:54;;;;;;;;;;;15.50;55.30;;;;;;5054806;27;75365;-66
2021/05/12 09:03:19;;;;;;;;;;;15.60;55.40;;;;;;5073321;27;76295;-64
2021/05/12 09:05:46;;;;;;;;;;;15.90;54.10;;;;;;5054116;27;76926;-69
2021/05/12 09:08:11;;;;;;;;;;;15.90;54.10;;;;;;5054605;27;77404;-66
2021/05/12 09:10:37;;;;;;;;;;;16.00;53.80;;;;;;5051947;27;77642;-67
2021/05/12 09:13:03;;;;;;;;;;;16.00;54.00;;;;;;5055021;27;76398;-68
2021/05/12 09:15:29;;;;;;;;;;;15.90;53.40;;;;;;5054282;27;75660;-66
2021/05/12 09:17:56;;;;;;;;;;;15.80;54.10;;;;;;5054444;27;75639;-68
2021/05/12 09:20:24;;;;;;;;;;;15.70;54.50;;;;;;5055274;27;77814;-68
2021/05/12 09:23:04;;;;;;;;;;;15.70;54.10;;;;;;5053435;27;78387;-69
2021/05/12 09:25:30;;;;;;;;;;;15.70;54.50;;;;;;5054939;27;77254;-67
2021/05/12 09:28:15;;;;;;;;;;;15.90;54.80;;;;;;5072911;27;75771;-67
2021/05/12 09:30:42;;;;;;;;;;;15.90;54.50;;;;;;5083525;27;76300;-67
2021/05/12 09:33:08;;;;;;;;;;;16.00;54.60;;;;;;5073052;27;75171;-67
2021/05/12 09:35:41;;;;;;;;;;;15.90;54.40;;;;;;5053332;27;75645;-67
2021/05/12 09:38:16;;;;;;;;;;;15.90;54.60;;;;;;5052366;27;76157;-67
2021/05/12 09:40:42;;;;;;;;;;;15.90;54.80;;;;;;5052248;27;75287;-66
2021/05/12 09:43:07;;;;;;;;;;;16.00;54.70;;;;;;5052238;27;74983;-67
2021/05/12 09:45:37;;;;;;;;;;;16.00;54.30;;;;;;5070183;27;75313;-68
2021/05/12 09:48:03;;;;;;;;;;;16.20;54.00;;;;;;5062040;27;75534;-67
2021/05/12 09:50:36;;;;;;;;;;;16.30;54.30;;;;;;5070290;27;75379;-68
2021/05/12 09:53:03;;;;;;;;;;;16.40;54.20;;;;;;5052834;27;76219;-68
2021/05/12 09:55:39;;;;;;;;;;;16.50;53.90;;;;;;5072188;27;75003;-66
2021/05/12 09:58:21;;;;;;;;;;;16.50;53.90;;;;;;5072258;27;75216;-68
2021/05/12 10:00:48;;;;;;;;;;;16.50;53.70;;;;;;5073068;27;77721;-65
2021/05/12 10:03:14;;;;;;;;;;;16.50;54.00;;;;;;5073966;27;75208;-67
2021/05/12 10:05:50;;;;;;;;;;;16.50;54.40;;;;;;5055148;27;77841;-66
2021/05/12 10:08:23;;;;;;;;;;;16.80;54.10;;;;;;5054591;27;78189;-69
2021/05/12 10:11:10;;;;;;;;;;;17.00;53.00;;;;;;5074120;27;74528;-65
2021/05/12 10:13:37;;;;;;;;;;;17.10;52.80;;;;;;5054190;27;77306;-64
2021/05/12 10:16:05;;;;;;;;;;;17.20;52.70;;;;;;5051554;27;75603;-65
2021/05/12 10:18:31;;;;;;;;;;;17.40;52.10;;;;;;5052335;27;77605;-67
2021/05/12 10:20:58;;;;;;;;;;;17.40;52.10;;;;;;5073939;27;75005;-67
2021/05/12 10:23:24;;;;;;;;;;;17.70;51.70;;;;;;5054708;27;76230;-67
2021/05/12 10:25:49;;;;;;;;;;;17.80;51.40;;;;;;5072830;27;75663;-67
2021/05/12 10:28:16;;;;;;;;;;;17.90;51.10;;;;;;5073258;27;76173;-67
2021/05/12 10:30:41;;;;;;;;;;;18.10;50.80;;;;;;5073360;27;75056;-67
2021/05/12 10:33:11;;;;;;;;;;;18.30;50.50;;;;;;5054642;27;75733;-66
2021/05/12 10:35:38;;;;;;;;;;;18.50;49.60;;;;;;5055168;27;76503;-68
2021/05/12 10:38:04;;;;;;;;;;;18.60;49.50;;;;;;5073841;27;75122;-65
2021/05/12 10:40:33;;;;;;;;;;;18.40;49.30;;;;;;5073020;27;75697;-68
2021/05/12 10:43:06;;;;;;;;;;;18.60;48.80;;;;;;5073514;27;75291;-67
2021/05/12 10:48:53;;;;;;;;;;;19.10;48.60;;;;;;5009425;28;75831;-67
2021/05/12 10:51:19;;;;;;;;;;;19.40;47.70;;;;;;5041853;27;78238;-64
2021/05/12 10:53:49;;;;;;;;;;;19.70;46.60;;;;;;5073080;27;75193;-66
2021/05/12 10:56:15;;;;;;;;;;;19.80;46.20;;;;;;5054468;27;77409;-67
2021/05/12 10:59:01;;;;;;;;;;;20.00;45.60;;;;;;5054219;27;75437;-66
2021/05/12 11:01:27;;;;;;;;;;;20.30;45.10;;;;;;5073300;27;75214;-65
2021/05/12 11:03:53;;;;;;;;;;;20.70;43.70;;;;;;5047885;27;77660;-66
2021/05/12 11:06:22;;;;;;;;;;;21.00;43.30;;;;;;5067995;27;74697;-66
2021/05/12 11:09:07;;;;;;;;;;;21.40;42.50;;;;;;5073013;27;75051;-65
2021/05/12 11:11:33;;;;;;;;;;;21.70;42.30;;;;;;5072868;27;75752;-67
2021/05/12 11:14:18;;;;;;;;;;;22.20;41.70;;;;;;5054376;27;76668;-66
2021/05/12 11:17:02;;;;;;;;;;;22.90;40.40;;;;;;5053958;27;77045;-66
2021/05/12 11:19:34;;;;;;;;;;;23.90;39.20;;;;;;5052401;27;75496;-67
2021/05/12 11:22:20;;;;;;;;;;;24.60;35.70;;;;;;5052394;27;76432;-67
2021/05/12 11:24:51;;;;;;;;;;;24.70;36.00;;;;;;5054546;27;75748;-64
2021/05/12 11:28:14;;;;;;;;;;;25.30;35.40;;;;;;5073011;27;74539;-66
2021/05/12 11:32:36;;;;;;;;;;;25.20;35.20;;;;;;5072661;27;75040;-64
2021/05/12 11:35:03;;;;;;;;;;;26.30;33.70;;;;;;5073018;27;75317;-66
2021/05/12 11:37:31;;;;;;;;;;;26.40;33.50;;;;;;5059539;27;75103;-67
2021/05/12 11:39:57;;;;;;;;;;;27.50;32.40;;;;;;5053334;27;75521;-67
2021/05/12 11:42:25;;;;;;;;;;;27.70;32.10;;;;;;5052542;27;77295;-67
2021/05/12 11:45:01;;;;;;;;;;;27.40;31.30;;;;;;5071927;27;75317;-67
2021/05/12 11:47:31;;;;;;;;;;;27.60;32.40;;;;;;5053683;27;77295;-68
2021/05/12 11:49:56;;;;;;;;;;;27.50;31.70;;;;;;5072225;27;75221;-66
2021/05/12 11:52:29;;;;;;;;;;;27.10;32.50;;;;;;5072473;27;74435;-68
2021/05/12 11:55:02;;;;;;;;;;;27.40;31.90;;;;;;5054072;27;75548;-65
2021/05/12 11:57:28;;;;;;;;;;;27.20;31.80;;;;;;5070245;27;75764;-66
2021/05/12 11:59:53;;;;;;;;;;;28.50;31.20;;;;;;5070052;27;76118;-67
2021/05/12 12:02:19;;;;;;;;;;;30.00;29.60;;;;;;5053809;27;75826;-67
2021/05/12 12:05:00;;;;;;;;;;;31.60;26.60;;;;;;5053748;27;78405;-65
2021/05/12 12:07:25;;;;;;;;;;;32.30;26.00;;;;;;5053572;27;76479;-66
2021/05/12 12:10:01;;;;;;;;;;;33.00;25.80;;;;;;5071402;27;75137;-65
2021/05/12 12:12:27;;;;;;;;;;;33.70;24.70;;;;;;5053526;27;74834;-67
2021/05/12 12:15:02;;;;;;;;;;;34.30;24.10;;;;;;5053123;27;76347;-66
2021/05/12 12:17:28;;;;;;;;;;;33.40;24.10;;;;;;5047675;27;77355;-66
2021/05/12 12:19:58;;;;;;;;;;;30.50;26.70;;;;;;5066297;27;75415;-67
2021/05/12 12:22:24;;;;;;;;;;;30.70;26.30;;;;;;5060939;27;75159;-68
2021/05/12 12:24:49;;;;;;;;;;;30.90;26.80;;;;;;5072383;27;75432;-68
2021/05/12 12:27:18;;;;;;;;;;;32.10;25.40;;;;;;5052972;27;75712;-68
2021/05/12 12:29:47;;;;;;;;;;;31.10;26.20;;;;;;5053370;27;74624;-68
2021/05/12 12:32:12;;;;;;;;;;;32.50;26.00;;;;;;5071919;27;74551;-67
2021/05/12 12:34:42;;;;;;;;;;;34.40;23.70;;;;;;5071773;27;75218;-68
2021/05/12 12:37:09;;;;;;;;;;;33.60;24.90;;;;;;5051510;27;77475;-68
2021/05/12 12:40:07;;;;;;;;;;;32.30;25.40;;;;;;5072387;27;74550;-67
2021/05/12 12:42:34;;;;;;;;;;;32.70;25.40;;;;;;5071949;27;75033;-68
2021/05/12 12:45:01;;;;;;;;;;;34.70;23.00;;;;;;5072480;27;74727;-67
2021/05/12 12:47:27;;;;;;;;;;;36.20;22.50;;;;;;5053635;27;75241;-68
2021/05/12 12:49:57;;;;;;;;;;;37.50;22.00;;;;;;5053377;27;76475;-69
2021/05/12 12:52:25;;;;;;;;;;;38.70;19.70;;;;;;5046881;27;77300;-68
2021/05/12 12:55:03;;;;;;;;;;;38.50;18.80;;;;;;5071810;27;75126;-67
2021/05/12 12:57:55;;;;;;;;;;;38.80;18.30;;;;;;5053283;28;75246;-68
2021/05/12 13:00:24;;;;;;;;;;;39.00;19.20;;;;;;5054653;27;75331;-68
2021/05/12 13:03:06;;;;;;;;;;;35.90;21.00;;;;;;5036730;28;75342;-71
2021/05/12 13:05:33;;;;;;;;;;;36.20;21.50;;;;;;5055038;28;75461;-66
2021/05/12 13:08:15;;;;;;;;;;;35.90;20.70;;;;;;5035914;28;77320;-68
2021/05/12 13:10:41;;;;;;;;;;;36.30;21.10;;;;;;5035890;28;77093;-70
2021/05/12 13:13:07;;;;;;;;;;;34.20;21.80;;;;;;5054844;28;74762;-68
2021/05/12 13:15:34;;;;;;;;;;;31.90;23.30;;;;;;5054824;28;75078;-67
2021/05/12 13:18:00;;;;;;;;;;;31.80;23.10;;;;;;5057012;27;75321;-68
2021/05/12 13:20:27;;;;;;;;;;;30.30;24.90;;;;;;5073458;27;75863;-69
2021/05/12 13:23:11;;;;;;;;;;;29.60;25.20;;;;;;5080797;27;75214;-68
2021/05/12 13:25:45;;;;;;;;;;;29.70;25.40;;;;;;5093032;27;74552;-68
2021/05/12 13:28:11;;;;;;;;;;;29.00;26.10;;;;;;5076481;27;76378;-68
2021/05/12 13:30:36;;;;;;;;;;;29.60;25.20;;;;;;5093960;27;75093;-69
2021/05/12 13:33:02;;;;;;;;;;;30.10;25.20;;;;;;5076297;27;75377;-68
2021/05/12 13:35:28;;;;;;;;;;;31.20;24.20;;;;;;5076331;27;74768;-66
2021/05/12 13:37:53;;;;;;;;;;;33.40;22.40;;;;;;5076677;27;77846;-68
2021/05/12 13:40:19;;;;;;;;;;;32.20;23.70;;;;;;5076575;27;78444;-68
2021/05/12 13:42:45;;;;;;;;;;;30.50;24.40;;;;;;5095324;27;75236;-68
2021/05/12 13:45:12;;;;;;;;;;;31.20;25.20;;;;;;5095346;27;75803;-69
2021/05/12 13:47:38;;;;;;;;;;;33.90;22.40;;;;;;5076224;27;76845;-67
2021/05/12 13:50:05;;;;;;;;;;;36.20;19.80;;;;;;5095387;27;74378;-68
2021/05/12 13:52:40;;;;;;;;;;;36.90;19.90;;;;;;5076216;27;75723;-68
2021/05/12 13:55:12;;;;;;;;;;;37.50;18.40;;;;;;5095376;27;74626;-68
2021/05/12 13:58:15;;;;;;;;;;;36.30;19.80;;;;;;5076125;27;75715;-67
2021/05/12 14:03:23;;;;;;;;;;;38.70;17.60;;;;;;5052192;28;74478;-68
2021/05/12 14:05:48;;;;;;;;;;;38.10;18.70;;;;;;5054355;28;75179;-69
2021/05/12 14:08:14;;;;;;;;;;;37.80;18.40;;;;;;5052420;27;74635;-69
2021/05/12 14:10:41;;;;;;;;;;;34.80;19.30;;;;;;5035071;28;76000;-68
2021/05/12 14:13:14;;;;;;;;;;;31.90;22.00;;;;;;5035458;28;75717;-68
2021/05/12 14:18:11;;;;;;;;;;;28.00;26.20;;;;;;5050674;28;75259;-68
2021/05/12 14:20:37;;;;;;;;;;;26.60;27.80;;;;;;5053956;28;74463;-68
2021/05/12 14:23:04;;;;;;;;;;;25.90;28.80;;;;;;5054039;28;75061;-69
2021/05/12 14:25:29;;;;;;;;;;;28.10;26.50;;;;;;5054086;28;75056;-67
2021/05/12 14:27:57;;;;;;;;;;;30.20;24.60;;;;;;5068601;27;75916;-68
2021/05/12 14:30:23;;;;;;;;;;;30.00;24.50;;;;;;5053389;27;75227;-68